Terminal Aerodrome Forecast
Issued by NWS Grand Forks, ND

Home | Current Version | Previous Version | Graphics & Text | Print | Product List | Glossary On
Versions: 1 2 3 4 5 6 7 8 9 10 11 12 13 14 15 16 17 18 19 20
134
FTUS43 KFGF 210520
TAFFAR
TAF
KFAR 210520Z 2106/2206 36014G22KT P6SM FEW250
     FM211500 35014KT P6SM SCT200
     FM220000 02009KT P6SM SKC=

USA.gov is the U.S. government's official web portal to all federal, state and local government web resources and services.